createdAt,value
2019-06-15T00:00:32.425Z,12.80
2019-06-15T00:03:01.915Z,10.33
2019-06-15T00:05:31.488Z,11.97
2019-06-15T00:08:04.029Z,11.33
2019-06-15T00:10:32.341Z,16.77
2019-06-15T00:13:01.899Z,12.97
2019-06-15T00:15:31.496Z,11.87
2019-06-15T00:18:01.165Z,12.93
2019-06-15T00:20:30.672Z,12.07
2019-06-15T00:23:00.132Z,14.07
2019-06-15T00:25:32.486Z,12.60
2019-06-15T00:28:02.349Z,13.27
2019-06-15T00:30:31.897Z,13.10
2019-06-15T00:33:01.434Z,14.97
2019-06-15T00:35:31.075Z,13.63
2019-06-15T00:38:00.881Z,15.03
2019-06-15T00:40:30.458Z,12.03
2019-06-15T00:42:59.996Z,12.60
2019-06-15T00:45:29.480Z,12.37
2019-06-15T00:47:59.024Z,14.83
2019-06-15T00:50:28.543Z,12.03
2019-06-15T00:52:58.196Z,15.50
2019-06-15T00:55:27.722Z,12.40
2019-06-15T00:57:57.276Z,13.00
2019-06-15T01:00:27.021Z,18.17
2019-06-15T01:02:56.546Z,11.43
2019-06-15T01:05:26.197Z,12.93
2019-06-15T01:07:55.682Z,13.83
2019-06-15T01:10:25.303Z,14.00
2019-06-15T01:12:54.831Z,13.00
2019-06-15T01:15:24.657Z,13.20
2019-06-15T01:17:54.169Z,13.90
2019-06-15T01:20:23.735Z,12.53
2019-06-15T01:22:53.306Z,12.23
2019-06-15T01:25:22.973Z,11.63
2019-06-15T01:27:52.441Z,18.13
2019-06-15T01:30:22.227Z,17.00
2019-06-15T01:32:51.717Z,12.93
2019-06-15T01:35:21.351Z,14.60
2019-06-15T01:37:50.846Z,13.03
2019-06-15T01:40:20.495Z,12.13
2019-06-15T01:42:50.011Z,11.73
2019-06-15T01:45:25.947Z,12.27
2019-06-15T01:47:56.026Z,13.90
2019-06-15T01:50:25.585Z,13.63
2019-06-15T01:52:55.091Z,15.37
2019-06-15T01:55:24.532Z,14.87
2019-06-15T01:57:54.066Z,11.80
2019-06-15T02:00:26.010Z,12.80
2019-06-15T02:02:55.540Z,14.10
2019-06-15T02:05:25.010Z,15.63
2019-06-15T02:07:54.503Z,15.37
2019-06-15T02:10:29.218Z,13.40
2019-06-15T02:12:59.316Z,13.37
2019-06-15T02:15:29.038Z,12.43
2019-06-15T02:17:58.582Z,13.40
2019-06-15T02:20:28.120Z,10.57
2019-06-15T02:22:57.628Z,16.83
2019-06-15T02:25:35.897Z,13.93
2019-06-15T02:28:00.626Z,15.63
2019-06-15T02:30:32.069Z,12.30
2019-06-15T02:33:01.848Z,11.23
2019-06-15T02:35:31.648Z,14.07
2019-06-15T02:38:01.323Z,15.43
2019-06-15T02:40:30.953Z,13.20
2019-06-15T02:43:00.526Z,19.63
2019-06-15T02:45:30.076Z,14.60
2019-06-15T02:47:59.682Z,18.10
2019-06-15T02:50:29.246Z,17.63
2019-06-15T02:52:58.890Z,13.27
2019-06-15T02:55:28.458Z,13.33
2019-06-15T02:57:57.957Z,16.17
2019-06-15T03:00:41.001Z,13.07
2019-06-15T03:03:10.575Z,15.77
2019-06-15T03:05:40.267Z,16.60
2019-06-15T03:08:09.930Z,14.27
2019-06-15T03:10:39.425Z,19.97
2019-06-15T03:13:09.006Z,14.03
2019-06-15T03:15:38.533Z,15.40
2019-06-15T03:18:08.020Z,15.13
2019-06-15T03:20:37.609Z,16.00
2019-06-15T03:23:07.086Z,16.27
2019-06-15T03:25:36.637Z,17.50
2019-06-15T03:28:06.126Z,16.97
2019-06-15T03:30:35.732Z,16.03
2019-06-15T03:33:05.411Z,18.70
2019-06-15T03:35:39.455Z,18.57
2019-06-15T03:38:06.199Z,16.13
2019-06-15T03:40:35.750Z,22.67
2019-06-15T03:43:05.531Z,16.70
2019-06-15T03:45:35.008Z,15.27
2019-06-15T03:48:04.684Z,16.20
2019-06-15T03:50:34.149Z,16.90
2019-06-15T03:53:03.708Z,16.50
2019-06-15T03:55:33.246Z,14.30
2019-06-15T03:58:02.776Z,15.27
2019-06-15T04:00:55.173Z,16.57
2019-06-15T04:03:24.679Z,17.73
2019-06-15T04:05:54.182Z,16.47
2019-06-15T04:08:23.653Z,16.70
2019-06-15T04:10:53.185Z,14.20
2019-06-15T04:13:22.928Z,16.27
2019-06-15T04:16:04.950Z,15.13
2019-06-15T04:18:34.447Z,17.43
2019-06-15T04:21:04.009Z,14.50
2019-06-15T04:23:33.491Z,17.70
2019-06-15T04:26:03.030Z,15.77
2019-06-15T04:28:32.744Z,21.70
2019-06-15T04:31:02.311Z,15.80
2019-06-15T04:33:31.794Z,21.33
2019-06-15T04:36:01.565Z,14.43
2019-06-15T04:38:31.054Z,18.03
2019-06-15T04:41:01.619Z,12.73
2019-06-15T04:43:32.846Z,13.43
2019-06-15T04:46:02.360Z,15.47
2019-06-15T04:48:31.834Z,18.57
2019-06-15T04:51:01.322Z,16.03
2019-06-15T04:53:30.871Z,17.73
2019-06-15T04:56:00.383Z,14.60
2019-06-15T04:58:30.082Z,15.70
2019-06-15T05:00:59.575Z,14.07
2019-06-15T05:03:29.120Z,15.73
2019-06-15T05:05:58.636Z,14.93
2019-06-15T05:08:28.134Z,14.83
2019-06-15T05:10:59.997Z,15.60
2019-06-15T05:13:28.827Z,15.53
2019-06-15T05:15:58.467Z,16.83
2019-06-15T05:18:27.957Z,13.77
2019-06-15T05:20:57.535Z,11.90
2019-06-15T05:23:27.057Z,17.37
2019-06-15T05:25:56.558Z,13.57
2019-06-15T05:28:26.055Z,12.97
2019-06-15T05:30:55.543Z,16.43
2019-06-15T05:33:25.118Z,11.33
2019-06-15T05:35:54.599Z,15.30
2019-06-15T05:38:24.143Z,16.63
2019-06-15T05:40:53.647Z,13.57
2019-06-15T05:43:23.179Z,24.50
2019-06-15T05:45:52.727Z,11.07
2019-06-15T05:48:22.241Z,15.50
2019-06-15T05:50:51.801Z,13.63
2019-06-15T05:53:21.300Z,17.10
2019-06-15T05:55:50.834Z,12.87
2019-06-15T05:58:20.433Z,14.57
2019-06-15T06:00:49.936Z,15.27
2019-06-15T06:03:19.473Z,15.80
2019-06-15T06:05:48.971Z,13.47
2019-06-15T06:08:18.442Z,12.03
2019-06-15T06:10:48.036Z,14.90
2019-06-15T06:13:17.615Z,12.80
2019-06-15T06:15:47.231Z,11.90
2019-06-15T06:18:16.792Z,13.97
2019-06-15T06:20:46.340Z,13.97
2019-06-15T06:23:15.855Z,12.03
2019-06-15T06:25:45.334Z,13.60
2019-06-15T06:28:14.916Z,12.97
2019-06-15T06:30:44.417Z,12.07
2019-06-15T06:33:13.933Z,11.37
2019-06-15T06:35:43.838Z,13.40
2019-06-15T06:38:13.422Z,11.10
2019-06-15T06:40:42.928Z,13.43
2019-06-15T06:43:12.492Z,13.67
2019-06-15T06:45:42.112Z,17.53
2019-06-15T06:48:11.625Z,13.47
2019-06-15T06:50:41.383Z,16.90
2019-06-15T06:53:10.935Z,13.40
2019-06-15T06:55:40.485Z,13.97
2019-06-15T06:58:10.084Z,13.63
2019-06-15T07:00:39.584Z,12.83
2019-06-15T07:03:09.176Z,17.50
2019-06-15T07:05:38.832Z,11.87
2019-06-15T07:08:08.366Z,12.40
2019-06-15T07:10:37.861Z,13.67
2019-06-15T07:13:07.419Z,17.37
2019-06-15T07:15:37.013Z,16.00
2019-06-15T07:18:06.519Z,14.13
2019-06-15T07:20:36.161Z,14.43
2019-06-15T07:23:05.721Z,14.10
2019-06-15T07:25:35.321Z,17.90
2019-06-15T07:28:08.295Z,14.50
2019-06-15T07:30:36.265Z,13.50
2019-06-15T07:33:05.756Z,14.13
2019-06-15T07:35:35.295Z,16.50
2019-06-15T07:38:04.851Z,16.57
2019-06-15T07:40:34.374Z,16.80
2019-06-15T07:43:03.875Z,13.53
2019-06-15T07:45:33.594Z,17.97
2019-06-15T07:48:03.260Z,12.27
2019-06-15T07:50:32.903Z,13.67
2019-06-15T07:53:02.520Z,15.53
2019-06-15T07:55:33.750Z,17.63
2019-06-15T07:58:03.260Z,15.23
2019-06-15T08:00:32.904Z,16.00
2019-06-15T08:03:02.554Z,16.80
2019-06-15T08:05:32.104Z,13.07
2019-06-15T08:08:02.003Z,14.23
2019-06-15T08:10:31.725Z,15.87
2019-06-15T08:13:01.411Z,14.90
2019-06-15T08:15:31.102Z,16.53
2019-06-15T08:18:00.750Z,16.47
2019-06-15T08:20:33.559Z,13.10
2019-06-15T08:23:03.476Z,15.37
2019-06-15T08:25:33.102Z,16.97
2019-06-15T08:28:03.305Z,16.23
2019-06-15T08:30:41.350Z,19.95
2019-06-15T08:33:11.160Z,15.13
2019-06-15T08:35:40.732Z,14.23
2019-06-15T08:38:10.305Z,15.33
2019-06-15T08:40:39.878Z,17.93
2019-06-15T08:43:09.511Z,16.27
2019-06-15T08:45:39.021Z,17.23
2019-06-15T08:48:08.895Z,16.97
2019-06-15T08:50:38.502Z,14.60
2019-06-15T08:53:08.112Z,16.77
2019-06-15T08:55:37.665Z,15.85
2019-06-15T08:58:07.195Z,16.20
2019-06-15T09:00:36.905Z,16.62
2019-06-15T09:03:12.493Z,14.18
2019-06-15T09:05:42.269Z,14.05
2019-06-15T09:08:11.822Z,15.75
2019-06-15T09:10:42.684Z,15.63
2019-06-15T09:13:12.216Z,14.50
2019-06-15T09:15:50.472Z,16.23
2019-06-15T09:18:20.203Z,21.62
2019-06-15T09:20:50.483Z,18.75
2019-06-15T09:23:20.383Z,17.37
2019-06-15T09:25:50.028Z,15.72
2019-06-15T09:28:19.556Z,15.40
2019-06-15T09:30:49.076Z,17.87
2019-06-15T09:33:18.562Z,17.10
2019-06-15T09:35:48.469Z,16.90
2019-06-15T09:38:18.192Z,16.10
2019-06-15T09:40:48.034Z,16.50
2019-06-15T09:43:17.704Z,19.10
2019-06-15T09:45:47.393Z,16.42
2019-06-15T09:48:16.877Z,16.35
2019-06-15T09:50:46.441Z,18.30
2019-06-15T09:53:16.132Z,18.02
2019-06-15T09:55:45.898Z,19.20
2019-06-15T09:58:15.365Z,16.80
2019-06-15T10:00:45.056Z,17.20
2019-06-15T10:03:14.693Z,19.12
2019-06-15T10:05:44.330Z,17.98
2019-06-15T10:08:14.101Z,20.20
2019-06-15T10:10:43.778Z,17.45
2019-06-15T10:13:13.343Z,16.35
2019-06-15T10:15:42.962Z,16.48
2019-06-15T10:18:12.634Z,17.27
2019-06-15T10:20:42.283Z,15.68
2019-06-15T10:23:11.888Z,19.23
2019-06-15T10:25:41.435Z,15.00
2019-06-15T10:28:11.021Z,18.02
2019-06-15T10:30:42.066Z,15.08
2019-06-15T10:33:11.669Z,18.05
2019-06-15T10:35:41.158Z,15.32
2019-06-15T10:38:10.972Z,16.97
2019-06-15T10:40:40.549Z,22.22
2019-06-15T10:43:10.161Z,20.45
2019-06-15T10:45:39.813Z,18.07
2019-06-15T10:48:09.539Z,15.20
2019-06-15T10:50:39.159Z,17.92
2019-06-15T10:53:08.844Z,15.13
2019-06-15T10:55:38.562Z,16.77
2019-06-15T10:58:08.273Z,16.40
2019-06-15T11:00:39.756Z,18.42
2019-06-15T11:03:09.536Z,16.62
2019-06-15T11:05:39.180Z,17.07
2019-06-15T11:08:09.032Z,18.48
2019-06-15T11:10:57.593Z,17.15
2019-06-15T11:13:27.861Z,19.98
2019-06-15T11:15:58.122Z,23.22
2019-06-15T11:18:28.490Z,17.00
2019-06-15T11:20:58.950Z,16.85
2019-06-15T11:23:48.167Z,17.87
2019-06-15T11:26:17.730Z,16.50
2019-06-15T11:28:47.426Z,16.60
2019-06-15T11:31:17.024Z,20.08
2019-06-15T11:33:46.608Z,16.82
2019-06-15T11:36:16.244Z,22.13
2019-06-15T11:38:45.849Z,23.15
2019-06-15T11:41:15.452Z,23.22
2019-06-15T11:43:44.965Z,15.98
2019-06-15T11:46:14.544Z,19.02
2019-06-15T11:48:44.031Z,22.58
2019-06-15T11:51:13.509Z,17.30
2019-06-15T11:53:43.084Z,18.73
2019-06-15T11:56:12.705Z,24.72
2019-06-15T11:58:42.325Z,21.05
2019-06-15T12:01:12.107Z,17.80
2019-06-15T12:03:41.587Z,15.95
2019-06-15T12:06:11.212Z,22.85
2019-06-15T12:08:41.007Z,17.02
2019-06-15T12:11:10.570Z,19.90
2019-06-15T12:13:40.207Z,20.05
2019-06-15T12:16:10.023Z,20.55
2019-06-15T12:18:39.920Z,17.67
2019-06-15T12:21:09.487Z,23.47
2019-06-15T12:23:39.183Z,18.12
2019-06-15T12:26:08.811Z,17.40
2019-06-15T12:28:38.629Z,24.92
2019-06-15T12:31:08.475Z,17.52
2019-06-15T12:33:38.035Z,16.87
2019-06-15T12:36:18.870Z,17.15
2019-06-15T12:38:39.858Z,18.35
2019-06-15T12:41:09.509Z,19.32
2019-06-15T12:43:39.096Z,18.77
2019-06-15T12:46:08.785Z,12.05
2019-06-15T12:48:39.776Z,19.45
2019-06-15T12:51:09.296Z,16.32
2019-06-15T12:53:38.926Z,17.07
2019-06-15T12:56:08.563Z,16.55
2019-06-15T12:58:38.247Z,16.87
2019-06-15T13:01:07.958Z,16.12
2019-06-15T13:03:49.196Z,18.17
2019-06-15T13:06:18.944Z,14.18
2019-06-15T13:08:48.468Z,13.80
2019-06-15T13:11:18.188Z,20.30
2019-06-15T13:13:47.762Z,18.85
2019-06-15T13:16:17.354Z,12.65
2019-06-15T13:18:47.032Z,11.25
2019-06-15T13:21:16.726Z,15.08
2019-06-15T13:23:46.205Z,13.70
2019-06-15T13:26:15.894Z,9.63
2019-06-15T13:28:45.512Z,16.55
2019-06-15T13:31:18.359Z,12.05
2019-06-15T13:33:46.306Z,9.85
2019-06-15T13:36:15.931Z,11.75
2019-06-15T13:38:45.746Z,11.65
2019-06-15T13:41:15.453Z,12.50
2019-06-15T13:43:45.225Z,15.88
2019-06-15T13:46:14.785Z,15.20
2019-06-15T13:48:44.378Z,15.20
2019-06-15T13:51:13.885Z,14.50
2019-06-15T13:53:43.402Z,9.50
2019-06-15T13:56:12.980Z,11.65
2019-06-15T13:58:42.667Z,12.23
2019-06-15T14:01:12.420Z,14.68
2019-06-15T14:03:42.024Z,13.50
2019-06-15T14:06:11.698Z,12.93
2019-06-15T14:08:41.274Z,12.53
2019-06-15T14:11:10.850Z,13.32
2019-06-15T14:13:40.335Z,7.45
2019-06-15T14:16:10.214Z,8.68
2019-06-15T14:18:39.892Z,7.72
2019-06-15T14:21:09.432Z,8.23
2019-06-15T14:23:39.154Z,13.10
2019-06-15T14:26:08.844Z,10.55
2019-06-15T14:28:38.392Z,9.70
2019-06-15T14:31:08.059Z,11.18
2019-06-15T14:33:37.730Z,6.10
2019-06-15T14:36:07.519Z,9.63
2019-06-15T14:38:37.086Z,10.72
2019-06-15T14:41:06.573Z,6.78
2019-06-15T14:43:36.141Z,10.03
2019-06-15T14:46:05.830Z,11.60
2019-06-15T14:48:35.445Z,8.43
2019-06-15T14:51:05.269Z,8.53
2019-06-15T14:53:36.701Z,10.48
2019-06-15T14:56:06.785Z,12.93
2019-06-15T14:58:36.691Z,7.53
2019-06-15T15:01:06.633Z,6.35
2019-06-15T15:03:37.648Z,8.80
2019-06-15T15:06:07.645Z,7.90
2019-06-15T15:08:37.137Z,7.95
2019-06-15T15:11:06.769Z,8.20
2019-06-15T15:13:36.795Z,13.88
2019-06-15T15:16:07.210Z,11.53
2019-06-15T15:18:36.819Z,10.98
2019-06-15T15:21:06.960Z,9.28
2019-06-15T15:23:36.700Z,7.12
2019-06-15T15:26:06.625Z,10.60
2019-06-15T15:28:36.663Z,8.20
2019-06-15T15:31:06.754Z,8.70
2019-06-15T15:33:36.590Z,10.78
2019-06-15T15:36:07.202Z,10.98
2019-06-15T15:38:37.063Z,8.83
2019-06-15T15:41:06.840Z,8.10
2019-06-15T15:43:36.921Z,8.43
2019-06-15T15:46:07.098Z,10.88
2019-06-15T15:48:36.855Z,15.03
2019-06-15T15:51:06.685Z,11.83
2019-06-15T15:53:37.408Z,11.53
2019-06-15T15:56:07.371Z,19.17
2019-06-15T15:58:36.914Z,14.07
2019-06-15T16:01:06.707Z,9.90
2019-06-15T16:03:37.091Z,10.45
2019-06-15T16:06:06.970Z,11.55
2019-06-15T16:08:36.677Z,12.23
2019-06-15T16:11:06.408Z,11.05
2019-06-15T16:13:36.105Z,12.40
2019-06-15T16:16:05.703Z,11.65
2019-06-15T16:18:36.483Z,9.35
2019-06-15T16:21:06.515Z,10.50
2019-06-15T16:23:36.111Z,13.72
2019-06-15T16:26:06.016Z,10.90
2019-06-15T16:28:36.619Z,12.45
2019-06-15T16:31:13.144Z,13.30
2019-06-15T16:33:37.597Z,7.20
2019-06-15T16:36:07.321Z,9.00
2019-06-15T16:38:37.241Z,12.63
2019-06-15T16:41:06.883Z,7.92
2019-06-15T16:43:37.058Z,6.53
2019-06-15T16:46:06.873Z,7.83
2019-06-15T16:48:36.564Z,6.60
2019-06-15T16:51:06.795Z,10.43
2019-06-15T16:53:37.306Z,14.98
2019-06-15T16:56:07.216Z,14.13
2019-06-15T16:58:37.039Z,8.23
2019-06-15T17:01:06.853Z,10.58
2019-06-15T17:03:36.856Z,14.98
2019-06-15T17:06:07.257Z,10.33
2019-06-15T17:08:37.044Z,9.35
2019-06-15T17:11:06.925Z,10.10
2019-06-15T17:13:37.116Z,10.70
2019-06-15T17:16:06.924Z,10.08
2019-06-15T17:18:36.695Z,8.03
2019-06-15T17:21:07.015Z,11.57
2019-06-15T17:23:36.855Z,11.75
2019-06-15T17:26:06.584Z,13.75
2019-06-15T17:28:36.995Z,7.87
2019-06-15T17:31:06.922Z,10.93
2019-06-15T17:33:38.236Z,7.90
2019-06-15T17:36:07.784Z,6.20
2019-06-15T17:38:37.312Z,11.57
2019-06-15T17:41:06.984Z,9.17
2019-06-15T17:43:36.652Z,6.92
2019-06-15T17:46:07.219Z,7.47
2019-06-15T17:48:37.195Z,8.20
2019-06-15T17:51:06.876Z,8.05
2019-06-15T17:53:36.896Z,8.37
2019-06-15T17:56:07.243Z,7.47
2019-06-15T17:58:37.203Z,6.70
2019-06-15T18:01:06.873Z,6.53
2019-06-15T18:03:49.837Z,7.00
2019-06-15T18:06:08.086Z,5.83
2019-06-15T18:08:37.739Z,6.10
2019-06-15T18:11:07.458Z,7.23
2019-06-15T18:13:37.347Z,5.07
2019-06-15T18:16:07.087Z,6.33
2019-06-15T18:18:37.240Z,7.53
2019-06-15T18:21:06.915Z,10.07
2019-06-15T18:23:36.918Z,5.57
2019-06-15T18:26:07.283Z,8.00
2019-06-15T18:28:36.945Z,5.23
2019-06-15T18:31:06.777Z,6.73
2019-06-15T18:33:37.327Z,5.67
2019-06-15T18:36:06.961Z,8.10
2019-06-15T18:38:37.210Z,9.00
2019-06-15T18:41:07.436Z,5.80
2019-06-15T18:43:37.279Z,5.33
2019-06-15T18:46:07.275Z,5.33
2019-06-15T18:48:37.943Z,11.07
2019-06-15T18:51:07.722Z,4.67
2019-06-15T18:53:39.303Z,4.90
2019-06-15T18:56:08.747Z,4.47
2019-06-15T18:58:38.360Z,5.00
2019-06-15T19:01:07.952Z,4.47
2019-06-15T19:03:39.142Z,4.30
2019-06-15T19:06:08.884Z,4.80
2019-06-15T19:08:38.538Z,10.53
2019-06-15T19:11:08.040Z,8.13
2019-06-15T19:13:37.754Z,5.37
2019-06-15T19:16:07.356Z,9.77
2019-06-15T19:18:37.097Z,4.00
2019-06-15T19:21:07.130Z,4.17
2019-06-15T19:23:36.799Z,4.93
2019-06-15T19:26:06.604Z,6.53
2019-06-15T19:28:36.999Z,4.93
2019-06-15T19:31:06.948Z,3.90
2019-06-15T19:33:37.650Z,6.23
2019-06-15T19:36:07.786Z,4.10
2019-06-15T19:38:37.348Z,3.90
2019-06-15T19:41:07.149Z,5.40
2019-06-15T19:43:36.876Z,5.37
2019-06-15T19:46:07.212Z,6.97
2019-06-15T19:48:37.125Z,5.93
2019-06-15T19:51:09.944Z,4.00
2019-06-15T19:53:37.928Z,3.97
2019-06-15T19:56:07.533Z,8.33
2019-06-15T19:58:37.040Z,5.10
2019-06-15T20:01:06.975Z,5.57
2019-06-15T20:03:36.756Z,6.73
2019-06-15T20:06:06.684Z,4.63
2019-06-15T20:08:36.472Z,5.63
2019-06-15T20:11:07.215Z,4.30
2019-06-15T20:13:37.339Z,5.97
2019-06-15T20:16:07.997Z,5.93
2019-06-15T20:18:37.754Z,6.47
2019-06-15T20:21:07.531Z,5.03
2019-06-15T20:23:37.665Z,8.50
2019-06-15T20:26:07.410Z,5.80
2019-06-15T20:28:36.903Z,4.33
2019-06-15T20:31:06.810Z,6.17
2019-06-15T20:33:37.031Z,5.87
2019-06-15T20:36:06.969Z,6.10
2019-06-15T20:38:36.681Z,7.07
2019-06-15T20:41:07.317Z,8.60
2019-06-15T20:43:37.130Z,4.33
2019-06-15T20:46:07.186Z,4.30
2019-06-15T20:48:36.879Z,5.43
2019-06-15T20:51:10.026Z,5.37
2019-06-15T20:53:37.876Z,6.90
2019-06-15T20:56:07.390Z,4.40
2019-06-15T20:58:37.451Z,6.10
2019-06-15T21:01:07.310Z,6.00
2019-06-15T21:03:37.048Z,4.43
2019-06-15T21:06:07.040Z,6.00
2019-06-15T21:08:36.920Z,4.27
2019-06-15T21:11:07.060Z,5.07
2019-06-15T21:13:37.492Z,4.40
2019-06-15T21:16:07.486Z,6.57
2019-06-15T21:18:37.425Z,4.47
2019-06-15T21:21:07.189Z,4.50
2019-06-15T21:23:37.384Z,4.23
2019-06-15T21:26:07.544Z,5.77
2019-06-15T21:28:37.291Z,6.47
2019-06-15T21:31:07.026Z,5.43
2019-06-15T21:33:36.653Z,4.37
2019-06-15T21:36:06.494Z,7.57
2019-06-15T21:38:36.384Z,5.37
2019-06-15T21:41:07.852Z,5.27
2019-06-15T21:43:37.623Z,6.43
2019-06-15T21:46:16.713Z,5.40
2019-06-15T21:48:46.944Z,5.30
2019-06-15T21:51:16.691Z,4.30
2019-06-15T21:53:46.983Z,5.93
2019-06-15T21:56:16.674Z,3.10
2019-06-15T21:58:46.357Z,5.30
2019-06-15T22:01:23.113Z,2.70
2019-06-15T22:03:52.713Z,2.43
2019-06-15T22:06:22.306Z,6.50
2019-06-15T22:08:51.912Z,4.07
2019-06-15T22:11:21.576Z,2.30
2019-06-15T22:13:51.151Z,2.97
2019-06-15T22:16:20.777Z,5.40
2019-06-15T22:18:50.386Z,8.40
2019-06-15T22:21:19.996Z,2.47
2019-06-15T22:23:49.476Z,1.87
2019-06-15T22:26:19.132Z,1.73
2019-06-15T22:28:48.738Z,6.23
2019-06-15T22:31:18.351Z,2.20
2019-06-15T22:33:47.909Z,2.00
2019-06-15T22:36:24.916Z,2.20
2019-06-15T22:38:48.821Z,3.20
2019-06-15T22:41:18.375Z,2.57
2019-06-15T22:43:47.982Z,1.60
2019-06-15T22:46:17.677Z,2.43
2019-06-15T22:48:47.390Z,1.87
2019-06-15T22:51:17.140Z,3.63
2019-06-15T22:53:47.253Z,1.83
2019-06-15T22:56:17.382Z,2.83
2019-06-15T22:58:47.056Z,3.70
2019-06-15T23:01:17.069Z,2.30
2019-06-15T23:03:46.842Z,1.57
2019-06-15T23:06:16.622Z,2.20
2019-06-15T23:08:47.059Z,1.20
2019-06-15T23:11:17.462Z,1.03
2019-06-15T23:13:47.253Z,1.73
2019-06-15T23:16:16.894Z,1.20
2019-06-15T23:18:46.890Z,3.17
2019-06-15T23:21:17.286Z,1.03
2019-06-15T23:23:47.401Z,2.90
2019-06-15T23:26:16.948Z,1.20
2019-06-15T23:28:46.877Z,2.67
2019-06-15T23:31:16.834Z,1.90
2019-06-15T23:33:46.949Z,1.20
2019-06-15T23:36:22.167Z,3.13
2019-06-15T23:38:51.646Z,2.87
2019-06-15T23:41:21.292Z,2.13
2019-06-15T23:43:50.831Z,1.67
2019-06-15T23:46:20.366Z,4.00
2019-06-15T23:48:49.920Z,6.17
2019-06-15T23:51:19.493Z,3.03
2019-06-15T23:53:48.985Z,1.27
2019-06-15T23:56:18.581Z,3.60
